Time;durP1;ratioP1;P1;durP2;ratioP2;P2;SDS_P1;SDS_P2;PMS_P1;PMS_P2;Temp;Humidity;BMP_temperature;BMP_pressure;BME280_temperature;BME280_humidity;BME280_pressure;Samples;Min_cycle;Max_cycle;Signal;HPM_P1;HPM_P2
2024/03/10 00:01:48;;;;;;;;;;;7.40;89.20;;;;;;5017524;28;82970;-45
2024/03/10 00:04:13;;;;;;;;;;;7.40;89.30;;;;;;5023432;28;83540;-45
2024/03/10 00:06:39;;;;;;;;;;;7.40;89.10;;;;;;5023190;28;82742;-44
2024/03/10 00:09:04;;;;;;;;;;;7.40;89.10;;;;;;5025887;28;82067;-44
2024/03/10 00:11:30;;;;;;;;;;;7.40;89.20;;;;;;5020555;28;82533;-44
2024/03/10 00:13:56;;;;;;;;;;;7.40;89.80;;;;;;5026003;28;82737;-43
2024/03/10 00:16:22;;;;;;;;;;;7.40;89.10;;;;;;5019049;28;83506;-45
2024/03/10 00:18:47;;;;;;;;;;;7.40;89.10;;;;;;5020256;28;81219;-45
2024/03/10 00:21:14;;;;;;;;;;;7.40;89.10;;;;;;5024200;28;83043;-44
2024/03/10 00:23:40;;;;;;;;;;;7.40;89.20;;;;;;5019976;28;82584;-44
2024/03/10 00:26:06;;;;;;;;;;;7.40;89.20;;;;;;5021506;28;82919;-45
2024/03/10 00:28:33;;;;;;;;;;;7.40;89.10;;;;;;5022547;28;83909;-45
2024/03/10 00:30:59;;;;;;;;;;;7.40;89.20;;;;;;5014697;28;81830;-43
2024/03/10 00:33:25;;;;;;;;;;;7.40;89.10;;;;;;5026457;28;82746;-46
2024/03/10 00:35:50;;;;;;;;;;;7.40;89.20;;;;;;5021588;28;82840;-46
2024/03/10 00:38:17;;;;;;;;;;;7.40;89.20;;;;;;5024064;28;82003;-45
2024/03/10 00:40:42;;;;;;;;;;;7.40;89.30;;;;;;5021398;28;82346;-46
2024/03/10 00:43:08;;;;;;;;;;;7.40;89.30;;;;;;5024585;28;82639;-45
2024/03/10 00:45:33;;;;;;;;;;;7.30;89.20;;;;;;5020499;28;81942;-45
2024/03/10 00:47:59;;;;;;;;;;;7.30;89.30;;;;;;5026765;28;82658;-44
2024/03/10 00:50:25;;;;;;;;;;;7.30;89.20;;;;;;5019760;28;82803;-46
2024/03/10 00:52:51;;;;;;;;;;;7.40;89.30;;;;;;5016340;28;83041;-46
2024/03/10 00:55:16;;;;;;;;;;;7.30;89.30;;;;;;5021594;28;83414;-46
2024/03/10 00:57:42;;;;;;;;;;;7.40;89.30;;;;;;5019946;28;81993;-46
2024/03/10 01:00:11;;;;;;;;;;;7.30;89.20;;;;;;5022705;28;81912;-45
2024/03/10 01:02:37;;;;;;;;;;;7.40;89.20;;;;;;5024029;28;83269;-47
2024/03/10 01:05:06;;;;;;;;;;;7.30;89.20;;;;;;5023706;28;81890;-45
2024/03/10 01:07:32;;;;;;;;;;;7.30;89.20;;;;;;5017129;28;83448;-47
2024/03/10 01:09:58;;;;;;;;;;;7.30;89.20;;;;;;5024486;28;83460;-47
2024/03/10 01:12:23;;;;;;;;;;;7.40;89.20;;;;;;5022543;28;81936;-46
2024/03/10 01:14:49;;;;;;;;;;;7.30;89.20;;;;;;5018931;28;85366;-46
2024/03/10 01:17:14;;;;;;;;;;;7.30;89.20;;;;;;5024356;28;82059;-46
2024/03/10 01:19:40;;;;;;;;;;;7.30;89.20;;;;;;5016792;28;82189;-46
2024/03/10 01:22:05;;;;;;;;;;;7.30;89.20;;;;;;5018879;28;83042;-44
2024/03/10 01:24:32;;;;;;;;;;;7.30;89.20;;;;;;5024123;28;82236;-45
2024/03/10 01:26:58;;;;;;;;;;;7.30;89.20;;;;;;5021698;28;83172;-44
2024/03/10 01:29:27;;;;;;;;;;;7.30;89.20;;;;;;5020083;28;83256;-46
2024/03/10 01:31:53;;;;;;;;;;;7.30;89.20;;;;;;5029022;28;81072;-46
2024/03/10 01:34:19;;;;;;;;;;;7.30;89.20;;;;;;5026596;28;83585;-45
2024/03/10 01:36:47;;;;;;;;;;;7.30;89.20;;;;;;5020446;28;81919;-45
2024/03/10 01:39:12;;;;;;;;;;;7.30;89.10;;;;;;5025464;28;82831;-46
2024/03/10 01:41:38;;;;;;;;;;;7.30;89.20;;;;;;5021101;28;82587;-45
2024/03/10 01:44:05;;;;;;;;;;;7.30;89.20;;;;;;5019097;28;82490;-45
2024/03/10 01:46:31;;;;;;;;;;;7.30;89.30;;;;;;5015338;28;81917;-44
2024/03/10 01:48:57;;;;;;;;;;;7.30;89.20;;;;;;5017953;28;85191;-44
2024/03/10 01:51:23;;;;;;;;;;;7.30;89.20;;;;;;5028822;28;82029;-45
2024/03/10 01:53:48;;;;;;;;;;;7.30;89.20;;;;;;5017242;28;82386;-44
2024/03/10 01:56:15;;;;;;;;;;;7.30;89.10;;;;;;5026529;28;81413;-45
2024/03/10 01:58:44;;;;;;;;;;;7.30;89.10;;;;;;5020315;28;82609;-44
2024/03/10 02:01:11;;;;;;;;;;;7.30;89.10;;;;;;5023569;28;82613;-44
2024/03/10 02:03:38;;;;;;;;;;;7.30;89.10;;;;;;5025788;28;82922;-44
2024/03/10 02:06:09;;;;;;;;;;;7.30;89.10;;;;;;5019865;28;83009;-45
2024/03/10 02:08:38;;;;;;;;;;;7.30;89.20;;;;;;5021253;28;84673;-44
2024/03/10 02:11:07;;;;;;;;;;;7.30;89.10;;;;;;5023786;28;81950;-44
2024/03/10 02:13:33;;;;;;;;;;;7.30;89.10;;;;;;5024869;28;82881;-44
2024/03/10 02:16:00;;;;;;;;;;;7.30;89.20;;;;;;5015926;28;82046;-44
2024/03/10 02:18:26;;;;;;;;;;;7.30;89.20;;;;;;5019620;28;83083;-44
2024/03/10 02:20:53;;;;;;;;;;;7.30;89.20;;;;;;5021148;28;82832;-45
2024/03/10 02:23:20;;;;;;;;;;;7.30;89.10;;;;;;5025461;28;82054;-45
2024/03/10 02:25:48;;;;;;;;;;;7.30;89.20;;;;;;5025382;28;82904;-44
2024/03/10 02:28:34;;;;;;;;;;;7.30;89.20;;;;;;5025752;28;83546;-44
2024/03/10 02:47:11;;;;;;;;;;;7.30;89.20;;;;;;5020839;28;82013;-45
2024/03/10 02:47:27;;;;;;;;;;;7.30;89.20;;;;;;5022970;28;81557;-44
2024/03/10 02:49:52;;;;;;;;;;;7.30;89.10;;;;;;5018594;28;82441;-45
2024/03/10 02:52:19;;;;;;;;;;;7.30;89.20;;;;;;5025249;28;82059;-45
2024/03/10 02:54:44;;;;;;;;;;;7.30;89.20;;;;;;5017106;28;83592;-45
2024/03/10 02:57:10;;;;;;;;;;;7.30;89.30;;;;;;5024919;28;82421;-45
2024/03/10 02:59:35;;;;;;;;;;;7.30;89.30;;;;;;5021006;28;81939;-45
2024/03/10 03:02:01;;;;;;;;;;;7.30;89.20;;;;;;5025027;28;82672;-44
2024/03/10 03:04:28;;;;;;;;;;;7.30;89.20;;;;;;5023947;28;82618;-44
2024/03/10 03:06:53;;;;;;;;;;;7.30;89.20;;;;;;5023159;28;83082;-46
2024/03/10 03:09:20;;;;;;;;;;;7.20;89.10;;;;;;5023070;28;83424;-44
2024/03/10 03:11:48;;;;;;;;;;;7.20;89.10;;;;;;5016779;28;81277;-43
2024/03/10 03:14:14;;;;;;;;;;;7.20;89.10;;;;;;5025618;28;82172;-45
2024/03/10 03:16:40;;;;;;;;;;;7.30;89.20;;;;;;5015931;28;83394;-44
2024/03/10 03:19:06;;;;;;;;;;;7.30;89.20;;;;;;5025000;28;82874;-46
2024/03/10 03:21:33;;;;;;;;;;;7.20;89.10;;;;;;5019950;28;82560;-43
2024/03/10 03:23:59;;;;;;;;;;;7.20;89.20;;;;;;5020545;28;82668;-44
2024/03/10 03:26:24;;;;;;;;;;;7.20;89.10;;;;;;5024049;28;82063;-46
2024/03/10 03:28:50;;;;;;;;;;;7.20;89.10;;;;;;5023290;28;83762;-45
2024/03/10 03:31:17;;;;;;;;;;;7.30;89.20;;;;;;5022906;28;81901;-43
2024/03/10 03:33:43;;;;;;;;;;;7.20;89.10;;;;;;5018563;28;83036;-51
2024/03/10 03:36:08;;;;;;;;;;;7.20;89.10;;;;;;5026882;28;82575;-45
2024/03/10 03:38:35;;;;;;;;;;;7.20;89.10;;;;;;5020550;28;82010;-44
2024/03/10 03:41:00;;;;;;;;;;;7.20;89.10;;;;;;5021423;28;82850;-43
2024/03/10 03:43:26;;;;;;;;;;;7.20;89.10;;;;;;5016684;28;83832;-45
2024/03/10 03:45:52;;;;;;;;;;;7.20;89.20;;;;;;5017461;28;83179;-45
2024/03/10 03:48:18;;;;;;;;;;;7.20;89.20;;;;;;5022151;28;82506;-44
2024/03/10 03:50:43;;;;;;;;;;;7.20;89.20;;;;;;5019081;28;82001;-46
2024/03/10 03:53:09;;;;;;;;;;;7.20;89.20;;;;;;5020602;28;82917;-45
2024/03/10 03:55:34;;;;;;;;;;;7.20;89.20;;;;;;5022524;28;82508;-45
2024/03/10 03:58:01;;;;;;;;;;;7.20;89.10;;;;;;5021239;28;81909;-44
2024/03/10 04:00:28;;;;;;;;;;;7.20;89.10;;;;;;5020458;28;82353;-44
2024/03/10 04:02:54;;;;;;;;;;;7.20;89.10;;;;;;5019133;28;83926;-45
2024/03/10 04:05:19;;;;;;;;;;;7.20;89.20;;;;;;5018560;28;82178;-44
2024/03/10 04:07:46;;;;;;;;;;;7.20;89.20;;;;;;5019928;28;83513;-43
2024/03/10 04:10:11;;;;;;;;;;;7.20;89.20;;;;;;5024144;28;82017;-45
2024/03/10 04:12:37;;;;;;;;;;;7.20;89.10;;;;;;5016020;28;82827;-45
2024/03/10 04:15:03;;;;;;;;;;;7.20;89.20;;;;;;5023802;28;82350;-46
2024/03/10 04:17:29;;;;;;;;;;;7.20;89.20;;;;;;5025673;28;82169;-44
2024/03/10 04:19:54;;;;;;;;;;;7.20;89.20;;;;;;5022703;28;82005;-45
2024/03/10 04:22:20;;;;;;;;;;;7.20;89.20;;;;;;5023023;28;81873;-45
2024/03/10 04:24:48;;;;;;;;;;;7.20;89.20;;;;;;5027343;28;81205;-44
2024/03/10 04:27:14;;;;;;;;;;;7.20;89.30;;;;;;5020335;28;83600;-45
2024/03/10 04:29:40;;;;;;;;;;;7.20;89.30;;;;;;5018068;28;82016;-45
2024/03/10 04:32:07;;;;;;;;;;;7.20;89.30;;;;;;5021645;28;82867;-44
2024/03/10 04:34:34;;;;;;;;;;;7.20;89.30;;;;;;5016532;28;83471;-45
2024/03/10 04:37:00;;;;;;;;;;;7.20;89.20;;;;;;5023955;28;82658;-44
2024/03/10 04:39:25;;;;;;;;;;;7.20;89.30;;;;;;5016764;28;82055;-44
2024/03/10 04:41:54;;;;;;;;;;;7.20;89.30;;;;;;5022247;28;81909;-44
2024/03/10 04:44:20;;;;;;;;;;;7.20;89.20;;;;;;5018968;28;81919;-45
2024/03/10 04:46:46;;;;;;;;;;;7.20;89.20;;;;;;5026608;28;82003;-45
2024/03/10 04:49:11;;;;;;;;;;;7.20;89.20;;;;;;5023048;28;81102;-45
2024/03/10 04:51:38;;;;;;;;;;;7.10;89.20;;;;;;5017164;28;81869;-45
2024/03/10 04:54:05;;;;;;;;;;;7.20;89.30;;;;;;5022398;28;82367;-45
2024/03/10 04:56:34;;;;;;;;;;;7.10;89.10;;;;;;5018775;28;82970;-43
2024/03/10 04:59:00;;;;;;;;;;;7.10;89.10;;;;;;5026171;28;83907;-43
2024/03/10 05:01:28;;;;;;;;;;;7.20;89.20;;;;;;5022871;28;82644;-44
2024/03/10 05:03:53;;;;;;;;;;;7.10;89.20;;;;;;5021953;28;82021;-45
2024/03/10 05:06:19;;;;;;;;;;;7.10;89.10;;;;;;5017567;28;81882;-44
2024/03/10 05:08:46;;;;;;;;;;;7.20;89.10;;;;;;5019839;28;83256;-46
2024/03/10 05:11:11;;;;;;;;;;;7.10;89.20;;;;;;5024500;28;82947;-45
2024/03/10 05:13:37;;;;;;;;;;;7.20;89.10;;;;;;5024918;28;81886;-46
2024/03/10 05:16:03;;;;;;;;;;;7.10;89.10;;;;;;5022428;28;82588;-45
2024/03/10 05:18:29;;;;;;;;;;;7.10;89.20;;;;;;5023070;28;81976;-45
2024/03/10 05:20:55;;;;;;;;;;;7.10;89.00;;;;;;5025722;28;84198;-45
2024/03/10 05:23:20;;;;;;;;;;;7.10;89.10;;;;;;5023789;28;82229;-43
2024/03/10 05:25:46;;;;;;;;;;;7.20;89.20;;;;;;5022295;28;81924;-45
2024/03/10 05:28:12;;;;;;;;;;;7.10;89.10;;;;;;5026079;28;81966;-47
2024/03/10 05:30:38;;;;;;;;;;;7.10;89.10;;;;;;5025898;28;82383;-47
2024/03/10 05:33:05;;;;;;;;;;;7.10;89.10;;;;;;5023314;28;81977;-45
2024/03/10 05:35:31;;;;;;;;;;;7.10;89.10;;;;;;5016726;28;81892;-45
2024/03/10 05:37:57;;;;;;;;;;;7.10;89.00;;;;;;5021904;28;83081;-44
2024/03/10 05:40:22;;;;;;;;;;;7.10;89.00;;;;;;5020392;28;82969;-45
2024/03/10 05:42:48;;;;;;;;;;;7.10;89.10;;;;;;5020512;28;82377;-46
2024/03/10 05:45:13;;;;;;;;;;;7.10;89.10;;;;;;5022960;28;82856;-44
2024/03/10 05:47:39;;;;;;;;;;;7.10;89.10;;;;;;5019707;28;81941;-45
2024/03/10 05:50:06;;;;;;;;;;;7.20;89.00;;;;;;5028629;28;82774;-48
2024/03/10 05:52:32;;;;;;;;;;;7.20;89.00;;;;;;5020601;28;82513;-46
2024/03/10 05:54:58;;;;;;;;;;;7.20;88.90;;;;;;5025631;28;82459;-47
2024/03/10 05:57:23;;;;;;;;;;;7.10;88.90;;;;;;5020921;28;81953;-45
2024/03/10 05:59:50;;;;;;;;;;;7.10;89.00;;;;;;5020749;28;82266;-45
2024/03/10 06:02:16;;;;;;;;;;;7.10;88.90;;;;;;5020158;28;82092;-45
2024/03/10 06:04:42;;;;;;;;;;;7.20;89.00;;;;;;5020472;28;82588;-44
2024/03/10 06:07:08;;;;;;;;;;;7.20;89.10;;;;;;5023387;28;82525;-45
2024/03/10 06:09:34;;;;;;;;;;;7.20;89.00;;;;;;5020465;28;82943;-46
2024/03/10 06:12:03;;;;;;;;;;;7.20;88.80;;;;;;5023418;28;83772;-44
2024/03/10 06:14:30;;;;;;;;;;;7.20;88.80;;;;;;5019198;28;82273;-44
2024/03/10 06:16:56;;;;;;;;;;;7.20;88.80;;;;;;5024554;28;82009;-44
2024/03/10 06:27:35;;;;;;;;;;;7.20;88.90;;;;;;5022912;28;81235;-44
2024/03/10 06:30:00;;;;;;;;;;;7.20;88.70;;;;;;5024770;28;82278;-43
2024/03/10 06:32:26;;;;;;;;;;;7.20;88.60;;;;;;5022728;28;82026;-45
2024/03/10 06:34:51;;;;;;;;;;;7.20;88.70;;;;;;5030176;28;82784;-45
2024/03/10 06:37:19;;;;;;;;;;;7.20;88.70;;;;;;5018464;28;82648;-44
2024/03/10 06:39:45;;;;;;;;;;;7.20;88.60;;;;;;5017776;28;83646;-44
2024/03/10 06:42:11;;;;;;;;;;;7.20;88.50;;;;;;5020813;28;82065;-46
2024/03/10 06:44:37;;;;;;;;;;;7.30;88.50;;;;;;5019725;28;82942;-44
2024/03/10 06:47:03;;;;;;;;;;;7.30;88.30;;;;;;5022063;28;82956;-45
2024/03/10 06:49:28;;;;;;;;;;;7.30;88.30;;;;;;5022336;28;82374;-46
2024/03/10 06:51:54;;;;;;;;;;;7.30;88.30;;;;;;5025139;28;83021;-44
2024/03/10 06:54:19;;;;;;;;;;;7.30;88.20;;;;;;5015850;28;83408;-46
2024/03/10 06:56:45;;;;;;;;;;;7.30;88.10;;;;;;5024555;28;82807;-44
2024/03/10 06:59:12;;;;;;;;;;;7.30;88.40;;;;;;5017852;28;83608;-45
2024/03/10 07:01:44;;;;;;;;;;;7.30;88.20;;;;;;5023317;28;82155;-47
2024/03/10 07:04:10;;;;;;;;;;;7.30;88.30;;;;;;5019438;28;81931;-45
2024/03/10 07:06:36;;;;;;;;;;;7.30;88.30;;;;;;5020877;28;82721;-46
2024/03/10 07:09:06;;;;;;;;;;;7.30;88.40;;;;;;5021380;28;81946;-44
2024/03/10 07:11:39;;;;;;;;;;;7.30;88.50;;;;;;5019079;28;84799;-46
2024/03/10 07:14:04;;;;;;;;;;;7.30;88.40;;;;;;5019519;28;83512;-44
2024/03/10 07:16:31;;;;;;;;;;;7.30;88.30;;;;;;5023066;28;81541;-44
2024/03/10 07:18:57;;;;;;;;;;;7.30;88.30;;;;;;5025780;28;82308;-43
2024/03/10 07:21:22;;;;;;;;;;;7.40;88.40;;;;;;5026391;28;82069;-45
2024/03/10 07:23:48;;;;;;;;;;;7.30;88.40;;;;;;5022144;28;82870;-45
2024/03/10 07:26:14;;;;;;;;;;;7.30;88.50;;;;;;5021107;28;82637;-46
2024/03/10 07:28:39;;;;;;;;;;;7.30;88.50;;;;;;5021861;28;82031;-44
2024/03/10 07:31:05;;;;;;;;;;;7.30;88.50;;;;;;5017401;28;81929;-45
2024/03/10 07:33:33;;;;;;;;;;;7.40;88.50;;;;;;5019504;28;82511;-43
2024/03/10 07:35:59;;;;;;;;;;;7.40;88.70;;;;;;5020792;28;82102;-44
2024/03/10 07:38:25;;;;;;;;;;;7.40;88.70;;;;;;5023329;28;83173;-44
2024/03/10 07:40:51;;;;;;;;;;;7.40;88.70;;;;;;5029741;28;82759;-45
2024/03/10 07:43:17;;;;;;;;;;;7.40;88.70;;;;;;5019892;28;81989;-44
2024/03/10 07:45:44;;;;;;;;;;;7.40;88.80;;;;;;5019996;28;82803;-44
2024/03/10 07:48:10;;;;;;;;;;;7.40;89.00;;;;;;5015589;28;83663;-45
2024/03/10 07:50:36;;;;;;;;;;;7.40;88.80;;;;;;5018033;28;82663;-45
2024/03/10 07:53:02;;;;;;;;;;;7.30;88.80;;;;;;5024413;28;82187;-44
2024/03/10 07:55:30;;;;;;;;;;;7.40;89.00;;;;;;5019004;28;82515;-44
2024/03/10 07:57:59;;;;;;;;;;;7.40;89.10;;;;;;5023298;28;82938;-45
2024/03/10 08:00:26;;;;;;;;;;;7.40;89.00;;;;;;5020677;28;81896;-45
2024/03/10 08:02:55;;;;;;;;;;;7.40;89.00;;;;;;5022860;28;82916;-44
2024/03/10 08:05:21;;;;;;;;;;;7.50;88.90;;;;;;5020908;28;82707;-46
2024/03/10 08:07:48;;;;;;;;;;;7.40;89.10;;;;;;5022717;28;83515;-44
2024/03/10 08:10:14;;;;;;;;;;;7.40;89.10;;;;;;5019582;28;82694;-45
2024/03/10 08:12:40;;;;;;;;;;;7.40;89.10;;;;;;5020035;28;84571;-44
2024/03/10 08:15:09;;;;;;;;;;;7.40;89.40;;;;;;5024067;28;82876;-46
2024/03/10 08:17:35;;;;;;;;;;;7.40;90.00;;;;;;5020174;28;82005;-44
2024/03/10 08:20:01;;;;;;;;;;;7.50;89.60;;;;;;5019449;28;83521;-43
2024/03/10 08:22:26;;;;;;;;;;;7.50;89.50;;;;;;5022145;28;83677;-45
2024/03/10 08:24:52;;;;;;;;;;;7.50;89.50;;;;;;5022237;28;82425;-45
2024/03/10 08:27:17;;;;;;;;;;;7.50;89.50;;;;;;5023929;28;83799;-44
2024/03/10 08:29:43;;;;;;;;;;;7.50;89.70;;;;;;5017367;28;81765;-45
2024/03/10 08:32:09;;;;;;;;;;;7.50;89.70;;;;;;5024220;28;82519;-45
2024/03/10 08:34:35;;;;;;;;;;;7.50;89.70;;;;;;5021529;28;82005;-46
2024/03/10 08:37:01;;;;;;;;;;;7.50;89.90;;;;;;5027141;28;83813;-44
2024/03/10 08:39:28;;;;;;;;;;;7.50;89.80;;;;;;5026347;28;82696;-45
2024/03/10 08:41:53;;;;;;;;;;;7.50;89.80;;;;;;5025509;28;81984;-46
2024/03/10 08:44:19;;;;;;;;;;;7.50;89.90;;;;;;5028189;28;82074;-45
2024/03/10 08:46:46;;;;;;;;;;;7.50;90.00;;;;;;5025289;28;81929;-46
2024/03/10 08:49:12;;;;;;;;;;;7.50;90.00;;;;;;5026084;28;82893;-45
2024/03/10 08:51:39;;;;;;;;;;;7.50;90.00;;;;;;5019541;28;88393;-45
2024/03/10 08:54:07;;;;;;;;;;;7.50;90.00;;;;;;5017349;28;86609;-44
2024/03/10 08:56:36;;;;;;;;;;;7.60;90.00;;;;;;5013122;28;87321;-44
2024/03/10 08:59:01;;;;;;;;;;;7.60;90.00;;;;;;5016114;28;88354;-44
2024/03/10 09:01:27;;;;;;;;;;;7.60;90.00;;;;;;5023172;28;87940;-45
2024/03/10 09:03:55;;;;;;;;;;;7.60;90.00;;;;;;5023886;28;88027;-45
2024/03/10 09:06:24;;;;;;;;;;;7.60;90.10;;;;;;5020363;28;88700;-45
2024/03/10 09:08:50;;;;;;;;;;;7.60;90.00;;;;;;5022187;28;87809;-45
2024/03/10 09:11:15;;;;;;;;;;;7.60;90.10;;;;;;5019643;28;87577;-45
2024/03/10 09:13:41;;;;;;;;;;;7.70;90.10;;;;;;5013744;28;87101;-45
2024/03/10 09:16:09;;;;;;;;;;;7.60;90.10;;;;;;5023945;28;86897;-46
2024/03/10 09:18:35;;;;;;;;;;;7.60;90.20;;;;;;5023300;28;86579;-46
2024/03/10 09:21:01;;;;;;;;;;;7.70;90.30;;;;;;5023687;28;87407;-44
2024/03/10 09:23:27;;;;;;;;;;;7.70;90.20;;;;;;5012562;28;88296;-46
2024/03/10 09:25:54;;;;;;;;;;;7.70;90.20;;;;;;5017129;28;89943;-45
2024/03/10 09:28:20;;;;;;;;;;;7.70;90.30;;;;;;5024539;28;87265;-47
2024/03/10 09:30:48;;;;;;;;;;;7.70;90.30;;;;;;5018984;28;88752;-45
2024/03/10 09:33:16;;;;;;;;;;;7.70;90.30;;;;;;5018595;28;87577;-45
2024/03/10 09:35:43;;;;;;;;;;;7.70;90.30;;;;;;5022474;28;87878;-47
2024/03/10 09:38:10;;;;;;;;;;;7.80;90.40;;;;;;5019902;28;87429;-46
2024/03/10 09:40:35;;;;;;;;;;;7.80;90.40;;;;;;5020612;28;87402;-45
2024/03/10 09:43:05;;;;;;;;;;;7.80;90.30;;;;;;5020330;28;86751;-46
2024/03/10 09:45:37;;;;;;;;;;;7.80;90.40;;;;;;5020369;28;87608;-44
2024/03/10 09:48:04;;;;;;;;;;;7.80;90.40;;;;;;5020202;28;88538;-44
2024/03/10 09:50:31;;;;;;;;;;;7.80;90.40;;;;;;5019943;28;87880;-45
2024/03/10 09:52:59;;;;;;;;;;;7.90;90.30;;;;;;5019187;28;87025;-45
2024/03/10 09:55:25;;;;;;;;;;;7.90;90.30;;;;;;5018070;28;87104;-46
2024/03/10 09:57:54;;;;;;;;;;;7.90;90.40;;;;;;5014225;28;87337;-46
2024/03/10 10:00:23;;;;;;;;;;;7.90;90.30;;;;;;5023017;28;86865;-46
2024/03/10 10:02:52;;;;;;;;;;;7.90;90.40;;;;;;5018963;28;86940;-45
2024/03/10 10:05:24;;;;;;;;;;;7.90;90.40;;;;;;5016201;28;87965;-45
2024/03/10 10:07:53;;;;;;;;;;;7.90;90.40;;;;;;5020001;28;86299;-46
2024/03/10 10:10:22;;;;;;;;;;;7.90;90.40;;;;;;5021889;28;87009;-46
2024/03/10 10:12:49;;;;;;;;;;;8.00;90.40;;;;;;5021076;28;87060;-45
2024/03/10 10:15:21;;;;;;;;;;;8.00;90.40;;;;;;5015853;28;88481;-46
2024/03/10 10:17:56;;;;;;;;;;;8.00;90.40;;;;;;5016593;28;88589;-46
2024/03/10 10:20:25;;;;;;;;;;;8.00;90.40;;;;;;5022073;28;87033;-46
2024/03/10 10:22:58;;;;;;;;;;;8.10;90.40;;;;;;5021115;28;88251;-46
2024/03/10 10:25:23;;;;;;;;;;;8.10;90.40;;;;;;5020984;28;89095;-46
2024/03/10 10:27:50;;;;;;;;;;;8.10;90.40;;;;;;5016540;28;87045;-46
2024/03/10 10:30:16;;;;;;;;;;;8.10;90.40;;;;;;5014668;28;88313;-49
2024/03/10 10:32:42;;;;;;;;;;;8.10;90.40;;;;;;5024182;28;88479;-46
2024/03/10 10:35:08;;;;;;;;;;;8.20;90.40;;;;;;5019721;28;87035;-49
2024/03/10 10:37:34;;;;;;;;;;;8.20;90.40;;;;;;5017360;28;88900;-49
2024/03/10 10:40:00;;;;;;;;;;;8.20;90.30;;;;;;5019271;28;88312;-48
2024/03/10 10:42:27;;;;;;;;;;;8.20;90.40;;;;;;5016810;28;89585;-47
2024/03/10 10:44:53;;;;;;;;;;;8.20;90.70;;;;;;5016178;28;88925;-46
2024/03/10 10:47:19;;;;;;;;;;;8.30;90.40;;;;;;5014703;28;87076;-45
2024/03/10 10:49:45;;;;;;;;;;;8.30;90.30;;;;;;5020259;28;87111;-46
2024/03/10 10:52:11;;;;;;;;;;;8.30;90.40;;;;;;5018849;28;87549;-45
2024/03/10 10:54:37;;;;;;;;;;;8.30;90.30;;;;;;5018678;28;87075;-46
2024/03/10 10:57:06;;;;;;;;;;;8.30;90.40;;;;;;5018298;28;86677;-46
2024/03/10 10:59:31;;;;;;;;;;;8.40;90.40;;;;;;5018041;28;86973;-44
2024/03/10 11:02:06;;;;;;;;;;;8.40;90.30;;;;;;5021034;28;87027;-47
2024/03/10 11:04:31;;;;;;;;;;;8.40;90.30;;;;;;5020442;28;88560;-44
2024/03/10 11:06:57;;;;;;;;;;;8.40;90.30;;;;;;5021404;28;87119;-45
2024/03/10 11:09:30;;;;;;;;;;;8.40;90.20;;;;;;5014093;28;87899;-45
2024/03/10 11:11:56;;;;;;;;;;;8.50;90.30;;;;;;5018769;28;87510;-47
2024/03/10 11:14:26;;;;;;;;;;;8.50;90.30;;;;;;5020232;28;87453;-46
2024/03/10 11:17:12;;;;;;;;;;;8.50;90.40;;;;;;5019049;28;87945;-47
2024/03/10 11:19:40;;;;;;;;;;;8.50;90.30;;;;;;5021492;28;87022;-46
2024/03/10 11:22:09;;;;;;;;;;;8.60;90.30;;;;;;5018293;28;88007;-47
2024/03/10 11:24:35;;;;;;;;;;;8.60;90.30;;;;;;5020645;28;88798;-47
2024/03/10 11:27:20;;;;;;;;;;;8.60;90.30;;;;;;5013013;28;86972;-45
2024/03/10 11:29:45;;;;;;;;;;;8.60;90.40;;;;;;5020194;28;88051;-46
2024/03/10 11:32:31;;;;;;;;;;;8.70;90.40;;;;;;5017591;28;88495;-47
2024/03/10 11:34:57;;;;;;;;;;;8.70;90.50;;;;;;5019791;28;87148;-47
2024/03/10 11:37:23;;;;;;;;;;;8.70;90.20;;;;;;5016942;28;86853;-46
2024/03/10 11:39:50;;;;;;;;;;;8.70;90.30;;;;;;5020480;28;88028;-47
2024/03/10 11:42:16;;;;;;;;;;;8.70;90.20;;;;;;5020591;28;86993;-45
2024/03/10 11:44:41;;;;;;;;;;;8.70;90.20;;;;;;5016194;28;87939;-46
2024/03/10 11:47:11;;;;;;;;;;;8.80;90.30;;;;;;5019825;28;86258;-45
2024/03/10 11:49:37;;;;;;;;;;;8.80;90.20;;;;;;5018920;28;87438;-45
2024/03/10 11:52:06;;;;;;;;;;;8.90;90.30;;;;;;5019454;28;88503;-47
2024/03/10 11:54:32;;;;;;;;;;;8.90;90.30;;;;;;5020684;28;87901;-46
2024/03/10 11:56:59;;;;;;;;;;;8.90;90.30;;;;;;5022910;28;87823;-47
2024/03/10 11:59:25;;;;;;;;;;;8.90;90.20;;;;;;5018702;28;87747;-48
2024/03/10 12:01:50;;;;;;;;;;;8.90;90.30;;;;;;5021501;28;86914;-47
2024/03/10 12:04:17;;;;;;;;;;;9.00;90.20;;;;;;5018891;28;87638;-48
2024/03/10 12:06:43;;;;;;;;;;;9.00;90.20;;;;;;5018530;28;86921;-48
2024/03/10 12:09:20;;;;;;;;;;;9.00;90.20;;;;;;5019507;28;87920;-47
2024/03/10 12:11:46;;;;;;;;;;;9.00;90.20;;;;;;5017985;28;87696;-47
2024/03/10 12:14:11;;;;;;;;;;;9.00;90.20;;;;;;5012249;28;87037;-48
2024/03/10 12:16:47;;;;;;;;;;;9.00;90.30;;;;;;5015536;28;86913;-47
2024/03/10 12:19:13;;;;;;;;;;;9.10;90.20;;;;;;5015087;28;90049;-47
2024/03/10 12:21:39;;;;;;;;;;;9.10;90.10;;;;;;5014551;28;87046;-46
2024/03/10 12:24:06;;;;;;;;;;;9.20;90.10;;;;;;5012420;28;87063;-46
2024/03/10 12:26:32;;;;;;;;;;;9.20;90.20;;;;;;5017797;28;87010;-45
2024/03/10 12:28:57;;;;;;;;;;;9.20;90.20;;;;;;5016118;28;88228;-47
2024/03/10 12:31:25;;;;;;;;;;;9.20;90.10;;;;;;5011623;28;87686;-46
2024/03/10 12:33:51;;;;;;;;;;;9.20;90.10;;;;;;5014428;28;87489;-46
2024/03/10 12:36:17;;;;;;;;;;;9.30;90.10;;;;;;5021885;28;87080;-45
2024/03/10 12:38:43;;;;;;;;;;;9.30;90.20;;;;;;5014183;28;88604;-47
2024/03/10 12:41:20;;;;;;;;;;;9.30;90.10;;;;;;5017884;28;87072;-46
2024/03/10 12:43:45;;;;;;;;;;;9.40;90.10;;;;;;5018659;28;88476;-47
2024/03/10 12:46:22;;;;;;;;;;;9.40;90.00;;;;;;5020247;28;86991;-47
2024/03/10 12:48:48;;;;;;;;;;;9.40;90.00;;;;;;5016646;28;88051;-45
2024/03/10 12:51:16;;;;;;;;;;;9.40;90.00;;;;;;5013337;28;87675;-46
2024/03/10 12:53:42;;;;;;;;;;;9.40;89.90;;;;;;5019238;28;87197;-47
2024/03/10 12:56:15;;;;;;;;;;;9.50;90.00;;;;;;5015871;28;87051;-48
2024/03/10 12:58:43;;;;;;;;;;;9.50;90.00;;;;;;5014106;28;88553;-46
2024/03/10 13:01:09;;;;;;;;;;;9.50;90.00;;;;;;5018205;28;86336;-46
2024/03/10 13:03:35;;;;;;;;;;;9.50;90.00;;;;;;5017545;28;87482;-46
2024/03/10 13:06:01;;;;;;;;;;;9.60;90.00;;;;;;5019053;28;88523;-45
2024/03/10 13:08:28;;;;;;;;;;;9.60;90.00;;;;;;5016137;28;89141;-45
2024/03/10 13:10:53;;;;;;;;;;;9.60;90.00;;;;;;5014949;28;87780;-47
2024/03/10 13:13:20;;;;;;;;;;;9.60;90.00;;;;;;5018468;28;87309;-46
2024/03/10 13:15:45;;;;;;;;;;;9.60;90.00;;;;;;5019249;28;88189;-47
2024/03/10 13:18:12;;;;;;;;;;;9.70;90.00;;;;;;5021709;28;87834;-47
2024/03/10 13:20:39;;;;;;;;;;;9.70;90.00;;;;;;5020600;28;88990;-46
2024/03/10 13:23:07;;;;;;;;;;;9.70;90.00;;;;;;5018267;28;86808;-47
2024/03/10 13:25:33;;;;;;;;;;;9.80;90.00;;;;;;5016717;28;87139;-45
2024/03/10 13:27:59;;;;;;;;;;;9.80;90.00;;;;;;5025179;28;86948;-46
2024/03/10 13:30:25;;;;;;;;;;;9.80;90.00;;;;;;5020065;28;89041;-45
2024/03/10 13:32:50;;;;;;;;;;;9.80;89.90;;;;;;5018873;28;89477;-45
2024/03/10 13:35:17;;;;;;;;;;;9.90;90.00;;;;;;5018000;28;88004;-48
2024/03/10 13:37:46;;;;;;;;;;;9.90;89.80;;;;;;5020974;28;87991;-47
2024/03/10 13:40:12;;;;;;;;;;;9.90;90.00;;;;;;5018538;28;87005;-46
2024/03/10 13:42:38;;;;;;;;;;;9.90;89.80;;;;;;5021689;28;86898;-47
2024/03/10 13:45:05;;;;;;;;;;;10.00;89.90;;;;;;5015411;28;88537;-51
2024/03/10 13:47:31;;;;;;;;;;;9.90;89.40;;;;;;5021028;28;87397;-48
2024/03/10 13:49:57;;;;;;;;;;;9.90;90.00;;;;;;5021193;28;87043;-47
2024/03/10 13:52:23;;;;;;;;;;;9.90;89.80;;;;;;5012783;28;86997;-47
2024/03/10 13:54:51;;;;;;;;;;;9.90;90.20;;;;;;5021748;28;86978;-46
2024/03/10 13:57:20;;;;;;;;;;;9.90;89.60;;;;;;5017509;28;88431;-44
2024/03/10 13:59:48;;;;;;;;;;;10.20;88.00;;;;;;5018485;28;87160;-50
2024/03/10 14:02:14;;;;;;;;;;;10.30;86.60;;;;;;5014133;28;87543;-52
2024/03/10 14:04:40;;;;;;;;;;;10.50;86.30;;;;;;5019274;28;88127;-48
2024/03/10 14:07:06;;;;;;;;;;;10.60;85.70;;;;;;5017410;28;86973;-42
2024/03/10 14:09:32;;;;;;;;;;;10.60;87.10;;;;;;5017964;28;87723;-41
2024/03/10 14:11:58;;;;;;;;;;;10.60;87.90;;;;;;5018796;28;87085;-41
2024/03/10 14:14:24;;;;;;;;;;;10.60;88.20;;;;;;5021294;28;88238;-44
2024/03/10 14:16:49;;;;;;;;;;;10.50;88.40;;;;;;5018097;28;87566;-54
2024/03/10 14:19:16;;;;;;;;;;;10.60;88.10;;;;;;5020138;28;87070;-47
2024/03/10 14:21:42;;;;;;;;;;;10.50;89.00;;;;;;5018925;28;88024;-48
2024/03/10 14:24:09;;;;;;;;;;;10.60;87.60;;;;;;5017401;28;89032;-47
2024/03/10 14:26:35;;;;;;;;;;;10.50;88.40;;;;;;5020211;28;87779;-46
2024/03/10 14:29:00;;;;;;;;;;;10.50;88.80;;;;;;5022100;28;87084;-45
2024/03/10 14:31:26;;;;;;;;;;;10.50;89.10;;;;;;5022017;28;87628;-45
2024/03/10 14:33:54;;;;;;;;;;;10.50;89.10;;;;;;5020966;28;86928;-47
2024/03/10 14:36:20;;;;;;;;;;;10.70;88.70;;;;;;5017545;28;87926;-46
2024/03/10 14:38:45;;;;;;;;;;;10.80;88.40;;;;;;5020455;28;86988;-47
2024/03/10 14:41:11;;;;;;;;;;;10.80;88.30;;;;;;5020639;28;87045;-46
2024/03/10 14:43:37;;;;;;;;;;;10.80;88.10;;;;;;5016515;28;88056;-46
2024/03/10 14:46:04;;;;;;;;;;;10.80;88.20;;;;;;5017615;28;88015;-45
2024/03/10 14:48:33;;;;;;;;;;;10.80;88.50;;;;;;5017379;28;88030;-47